N753OZ TXKF-KDAB
Flight info
| Callsign | N753OZ |
|---|---|
| Flight time | 2h 26m |
| Altitude | 42000 |
| Route | ENAPI M325 JNFOX M203 SNAGY/N0463F420 M203 ADOOR M202 HOBEE AR6 HIBAC AR15 APOLO |
| Aircraft | CL30/M-SDFGRW/S |
Departure
| Time | 2026-04-16 22:19 |
|---|---|
| Airport | L.F. Wade International Airport (TXKF) |
Arrival
| Time | 2026-04-17 00:45 |
|---|---|
| Airport | Daytona Beach International Airport (KDAB) |
| Time | Latitude | Longitude | Altitude | Speed | Heading |
|---|---|---|---|---|---|
| 2026-04-16 22:05 | 32.36474 | -64.66783 | 29 ft | 0 kts | 205° |
| 2026-04-16 22:17 | 32.36466 | -64.66788 | 29 ft | 5 kts | 202° |
| 2026-04-16 22:17 | 32.36401 | -64.66794 | 26 ft | 11 kts | 180° |
| 2026-04-16 22:17 | 32.36351 | -64.66729 | 26 ft | 10 kts | 101° |
| 2026-04-16 22:17 | 32.36337 | -64.66645 | 26 ft | 10 kts | 101° |
| 2026-04-16 22:18 | 32.36322 | -64.66557 | 26 ft | 10 kts | 101° |
| 2026-04-16 22:18 | 32.36301 | -64.66464 | 26 ft | 12 kts | 110° |
| 2026-04-16 22:18 | 32.36266 | -64.66364 | 26 ft | 13 kts | 114° |
| 2026-04-16 22:18 | 32.36185 | -64.66338 | 24 ft | 15 kts | 194° |
| 2026-04-16 22:19 | 32.36174 | -64.66535 | 20 ft | 52 kts | 282° |
| 2026-04-16 22:19 | 32.36313 | -64.67329 | 23 ft | 147 kts | 281° |
| 2026-04-16 22:19 | 32.36567 | -64.68809 | 451 ft | 209 kts | 281° |
| 2026-04-16 22:19 | 32.36899 | -64.70605 | 1648 ft | 240 kts | 282° |
| 2026-04-16 22:20 | 32.37215 | -64.72498 | 3416 ft | 245 kts | 281° |
| 2026-04-16 22:20 | 32.37558 | -64.74502 | 4900 ft | 259 kts | 280° |
| 2026-04-16 22:20 | 32.37913 | -64.76618 | 6473 ft | 268 kts | 281° |
| 2026-04-16 22:20 | 32.38289 | -64.78844 | 8051 ft | 274 kts | 281° |
| 2026-04-16 22:21 | 32.38712 | -64.81101 | 9433 ft | 284 kts | 287° |
| 2026-04-16 22:21 | 32.39292 | -64.83386 | 10769 ft | 291 kts | 287° |
| 2026-04-16 22:21 | 32.39888 | -64.85699 | 12127 ft | 295 kts | 288° |
| 2026-04-16 22:21 | 32.40496 | -64.88047 | 13379 ft | 301 kts | 288° |
| 2026-04-16 22:22 | 32.41119 | -64.90453 | 14578 ft | 306 kts | 288° |
| 2026-04-16 22:22 | 32.41751 | -64.92889 | 15674 ft | 312 kts | 288° |
| 2026-04-16 22:22 | 32.42402 | -64.95399 | 16722 ft | 319 kts | 288° |
| 2026-04-16 22:22 | 32.43053 | -64.97911 | 17671 ft | 326 kts | 288° |
| 2026-04-16 22:23 | 32.43729 | -65.00521 | 18634 ft | 331 kts | 288° |
| 2026-04-16 22:23 | 32.44412 | -65.03164 | 19574 ft | 336 kts | 288° |
| 2026-04-16 22:23 | 32.45106 | -65.05846 | 20476 ft | 341 kts | 289° |
| 2026-04-16 22:23 | 32.45810 | -65.08574 | 21328 ft | 346 kts | 289° |
| 2026-04-16 22:24 | 32.46531 | -65.11370 | 22117 ft | 351 kts | 289° |
| 2026-04-16 22:24 | 32.47250 | -65.14161 | 22894 ft | 356 kts | 289° |
| 2026-04-16 22:24 | 32.47978 | -65.16988 | 23654 ft | 360 kts | 289° |
| 2026-04-16 22:24 | 32.48718 | -65.19868 | 24400 ft | 364 kts | 289° |
| 2026-04-16 22:25 | 32.49457 | -65.22745 | 25118 ft | 367 kts | 289° |
| 2026-04-16 22:25 | 32.50211 | -65.25679 | 25822 ft | 370 kts | 289° |
| 2026-04-16 22:25 | 32.50959 | -65.28593 | 26524 ft | 372 kts | 289° |
| 2026-04-16 22:25 | 32.51721 | -65.31570 | 27174 ft | 376 kts | 289° |
| 2026-04-16 22:26 | 32.52487 | -65.34563 | 27847 ft | 378 kts | 289° |
| 2026-04-16 22:26 | 32.53249 | -65.37543 | 28464 ft | 381 kts | 290° |
| 2026-04-16 22:26 | 32.54020 | -65.40565 | 29048 ft | 384 kts | 290° |
| 2026-04-16 22:26 | 32.54800 | -65.43625 | 29616 ft | 387 kts | 290° |
| 2026-04-16 22:27 | 32.55584 | -65.46706 | 30165 ft | 390 kts | 290° |
| 2026-04-16 22:27 | 32.56377 | -65.49822 | 30690 ft | 394 kts | 290° |
| 2026-04-16 22:27 | 32.57177 | -65.52969 | 31197 ft | 397 kts | 290° |
| 2026-04-16 22:27 | 32.57987 | -65.56164 | 31691 ft | 400 kts | 290° |
| 2026-04-16 22:28 | 32.58796 | -65.59353 | 32164 ft | 402 kts | 290° |
| 2026-04-16 22:28 | 32.59607 | -65.62559 | 32619 ft | 405 kts | 290° |
| 2026-04-16 22:28 | 32.60432 | -65.65778 | 33058 ft | 408 kts | 290° |
| 2026-04-16 22:28 | 32.61268 | -65.69029 | 33488 ft | 411 kts | 290° |
| 2026-04-16 22:29 | 32.62109 | -65.72306 | 33914 ft | 413 kts | 290° |
| 2026-04-16 22:29 | 32.62946 | -65.75572 | 34320 ft | 416 kts | 290° |
| 2026-04-16 22:29 | 32.63792 | -65.78866 | 34788 ft | 416 kts | 289° |
| 2026-04-16 22:29 | 32.64640 | -65.82186 | 35211 ft | 418 kts | 290° |
| 2026-04-16 22:30 | 32.65487 | -65.85500 | 35598 ft | 420 kts | 290° |
| 2026-04-16 22:30 | 32.66338 | -65.88838 | 35993 ft | 422 kts | 290° |
| 2026-04-16 22:30 | 32.67191 | -65.92184 | 36469 ft | 422 kts | 290° |
| 2026-04-16 22:30 | 32.68034 | -65.95500 | 36998 ft | 420 kts | 290° |
| 2026-04-16 22:31 | 32.68880 | -65.98827 | 37524 ft | 419 kts | 290° |
| 2026-04-16 22:31 | 32.69721 | -66.02140 | 38031 ft | 417 kts | 290° |
| 2026-04-16 22:31 | 32.70557 | -66.05433 | 38523 ft | 416 kts | 290° |
| 2026-04-16 22:31 | 32.71396 | -66.08749 | 39010 ft | 415 kts | 290° |
| 2026-04-16 22:32 | 32.72238 | -66.12078 | 39484 ft | 414 kts | 290° |
| 2026-04-16 22:32 | 32.73063 | -66.15342 | 39929 ft | 414 kts | 290° |
| 2026-04-16 22:32 | 32.73889 | -66.18615 | 40370 ft | 413 kts | 290° |
| 2026-04-16 22:32 | 32.74712 | -66.21880 | 40804 ft | 412 kts | 290° |
| 2026-04-16 22:33 | 32.75543 | -66.25172 | 41238 ft | 412 kts | 290° |
| 2026-04-16 22:33 | 32.76371 | -66.28468 | 41765 ft | 408 kts | 290° |
| 2026-04-16 22:33 | 32.77196 | -66.31753 | 42171 ft | 408 kts | 290° |
| 2026-04-16 22:33 | 32.78032 | -66.35081 | 42207 ft | 418 kts | 290° |
| 2026-04-16 22:34 | 32.79728 | -66.41850 | 42207 ft | 421 kts | 290° |
| 2026-04-16 22:34 | 32.81430 | -66.48669 | 42207 ft | 421 kts | 290° |
| 2026-04-16 22:35 | 32.83114 | -66.55427 | 42207 ft | 422 kts | 290° |
| 2026-04-16 22:35 | 32.84806 | -66.62237 | 42206 ft | 422 kts | 290° |
| 2026-04-16 22:36 | 32.86478 | -66.68984 | 42208 ft | 422 kts | 290° |
| 2026-04-16 22:36 | 32.88141 | -66.75706 | 42208 ft | 423 kts | 290° |
| 2026-04-16 22:37 | 32.89805 | -66.82455 | 42207 ft | 423 kts | 290° |
| 2026-04-16 22:37 | 32.91468 | -66.89215 | 42207 ft | 423 kts | 290° |
| 2026-04-16 22:38 | 32.93151 | -66.96072 | 42206 ft | 423 kts | 290° |
| 2026-04-16 22:38 | 32.94821 | -67.02898 | 42206 ft | 423 kts | 290° |
| 2026-04-16 22:39 | 32.96488 | -67.09727 | 42206 ft | 423 kts | 290° |
| 2026-04-16 22:39 | 32.98150 | -67.16556 | 42205 ft | 423 kts | 290° |
| 2026-04-16 22:40 | 32.99809 | -67.23386 | 42205 ft | 423 kts | 290° |
| 2026-04-16 22:40 | 33.01459 | -67.30201 | 42205 ft | 423 kts | 290° |
| 2026-04-16 22:41 | 33.03098 | -67.36987 | 42204 ft | 422 kts | 290° |
| 2026-04-16 22:41 | 33.04733 | -67.43773 | 42204 ft | 422 kts | 290° |
| 2026-04-16 22:42 | 33.06364 | -67.50560 | 42204 ft | 422 kts | 290° |
| 2026-04-16 22:42 | 33.07979 | -67.57301 | 42203 ft | 421 kts | 290° |
| 2026-04-16 22:43 | 33.09602 | -67.64092 | 42203 ft | 421 kts | 290° |
| 2026-04-16 22:43 | 33.11201 | -67.70798 | 42214 ft | 421 kts | 290° |
| 2026-04-16 22:44 | 33.12791 | -67.77485 | 42216 ft | 422 kts | 290° |
| 2026-04-16 22:44 | 33.14395 | -67.84246 | 42214 ft | 422 kts | 290° |
| 2026-04-16 22:45 | 33.15995 | -67.91012 | 42214 ft | 423 kts | 290° |
| 2026-04-16 22:45 | 33.17580 | -67.97729 | 42213 ft | 423 kts | 290° |
| 2026-04-16 22:46 | 33.19174 | -68.04503 | 42213 ft | 424 kts | 290° |
| 2026-04-16 22:46 | 33.20675 | -68.11279 | 42213 ft | 426 kts | 287° |
| 2026-04-16 22:47 | 33.21919 | -68.18147 | 42212 ft | 426 kts | 286° |
| 2026-04-16 22:47 | 33.23150 | -68.25079 | 42212 ft | 427 kts | 286° |
| 2026-04-16 22:48 | 33.24360 | -68.31969 | 42212 ft | 427 kts | 286° |
| 2026-04-16 22:48 | 33.25576 | -68.38904 | 42212 ft | 426 kts | 286° |
| 2026-04-16 22:49 | 33.26784 | -68.45834 | 42211 ft | 426 kts | 286° |
| 2026-04-16 22:49 | 33.27976 | -68.52711 | 42210 ft | 426 kts | 286° |
| 2026-04-16 22:50 | 33.29172 | -68.59632 | 42210 ft | 425 kts | 286° |
| 2026-04-16 22:50 | 33.30363 | -68.66546 | 42211 ft | 425 kts | 285° |
| 2026-04-16 22:51 | 33.31539 | -68.73396 | 42213 ft | 425 kts | 285° |
| 2026-04-16 22:51 | 33.32724 | -68.80321 | 42213 ft | 425 kts | 285° |
| 2026-04-16 22:52 | 33.33898 | -68.87210 | 42212 ft | 424 kts | 285° |
| 2026-04-16 22:52 | 33.35070 | -68.94105 | 42212 ft | 424 kts | 285° |
| 2026-04-16 22:53 | 33.36242 | -69.01028 | 42211 ft | 424 kts | 285° |
| 2026-04-16 22:53 | 33.37399 | -69.07890 | 42211 ft | 424 kts | 285° |
| 2026-04-16 22:54 | 33.38559 | -69.14787 | 42211 ft | 424 kts | 285° |
| 2026-04-16 22:54 | 33.39710 | -69.21661 | 42210 ft | 423 kts | 285° |
| 2026-04-16 22:55 | 33.40868 | -69.28590 | 42210 ft | 423 kts | 285° |
| 2026-04-16 22:55 | 33.42010 | -69.35462 | 42209 ft | 423 kts | 285° |
| 2026-04-16 22:56 | 33.43148 | -69.42326 | 42209 ft | 422 kts | 285° |
| 2026-04-16 22:56 | 33.44280 | -69.49184 | 42208 ft | 422 kts | 285° |
| 2026-04-16 22:57 | 33.45410 | -69.56051 | 42208 ft | 421 kts | 285° |
| 2026-04-16 22:57 | 33.46535 | -69.62917 | 42207 ft | 421 kts | 285° |
| 2026-04-16 22:58 | 33.47655 | -69.69772 | 42212 ft | 421 kts | 285° |
| 2026-04-16 22:58 | 33.48777 | -69.76660 | 42213 ft | 421 kts | 284° |
| 2026-04-16 22:59 | 33.49885 | -69.83495 | 42211 ft | 421 kts | 284° |
| 2026-04-16 22:59 | 33.50998 | -69.90389 | 42211 ft | 420 kts | 284° |
| 2026-04-16 23:00 | 33.52101 | -69.97244 | 42210 ft | 420 kts | 284° |
| 2026-04-16 23:00 | 33.53203 | -70.04109 | 42210 ft | 420 kts | 284° |
| 2026-04-16 23:01 | 33.54320 | -70.11102 | 42209 ft | 420 kts | 284° |
| 2026-04-16 23:01 | 33.55425 | -70.18044 | 42209 ft | 419 kts | 284° |
| 2026-04-16 23:02 | 33.56519 | -70.24940 | 42208 ft | 419 kts | 284° |
| 2026-04-16 23:02 | 33.57615 | -70.31879 | 42111 ft | 421 kts | 284° |
| 2026-04-16 23:03 | 33.58717 | -70.38879 | 42060 ft | 421 kts | 284° |
| 2026-04-16 23:03 | 33.59821 | -70.45924 | 42059 ft | 419 kts | 284° |
| 2026-04-16 23:04 | 33.60906 | -70.52870 | 42058 ft | 418 kts | 284° |
| 2026-04-16 23:04 | 33.61991 | -70.59843 | 42058 ft | 416 kts | 284° |
| 2026-04-16 23:05 | 33.63061 | -70.66753 | 42062 ft | 415 kts | 284° |
| 2026-04-16 23:05 | 33.64117 | -70.73592 | 42064 ft | 414 kts | 284° |
| 2026-04-16 23:06 | 33.65172 | -70.80447 | 42063 ft | 412 kts | 284° |
| 2026-04-16 23:06 | 33.66223 | -70.87309 | 42063 ft | 411 kts | 284° |
| 2026-04-16 23:07 | 33.67278 | -70.94222 | 42062 ft | 410 kts | 284° |
| 2026-04-16 23:07 | 33.67278 | -71.01314 | 42060 ft | 421 kts | 264° |
| 2026-04-16 23:08 | 33.65118 | -71.08079 | 42052 ft | 435 kts | 245° |
| 2026-04-16 23:08 | 33.61631 | -71.14226 | 42052 ft | 438 kts | 240° |
| 2026-04-16 23:09 | 33.57931 | -71.20188 | 42052 ft | 439 kts | 239° |
| 2026-04-16 23:09 | 33.54159 | -71.26081 | 42055 ft | 438 kts | 238° |
| 2026-04-16 23:10 | 33.50411 | -71.31866 | 42052 ft | 438 kts | 238° |
| 2026-04-16 23:10 | 33.46640 | -71.37658 | 42051 ft | 437 kts | 238° |
| 2026-04-16 23:11 | 33.42880 | -71.43413 | 42051 ft | 436 kts | 238° |
| 2026-04-16 23:11 | 33.39118 | -71.49162 | 42051 ft | 436 kts | 238° |
| 2026-04-16 23:12 | 33.35358 | -71.54899 | 42051 ft | 435 kts | 238° |
| 2026-04-16 23:12 | 33.31611 | -71.60606 | 42051 ft | 435 kts | 238° |
| 2026-04-16 23:13 | 33.27851 | -71.66322 | 42056 ft | 434 kts | 238° |
| 2026-04-16 23:13 | 33.24092 | -71.72028 | 42055 ft | 434 kts | 238° |
| 2026-04-16 23:14 | 33.20338 | -71.77716 | 42063 ft | 435 kts | 238° |
| 2026-04-16 23:14 | 33.16600 | -71.83375 | 42059 ft | 435 kts | 238° |
| 2026-04-16 23:15 | 33.10942 | -71.91923 | 42059 ft | 435 kts | 238° |
| 2026-04-16 23:16 | 33.07173 | -71.97606 | 42059 ft | 435 kts | 238° |
| 2026-04-16 23:16 | 33.03382 | -72.03312 | 42059 ft | 436 kts | 238° |
| 2026-04-16 23:17 | 32.99603 | -72.08991 | 42058 ft | 436 kts | 238° |
| 2026-04-16 23:17 | 32.95808 | -72.14686 | 42058 ft | 436 kts | 238° |
| 2026-04-16 23:18 | 32.92014 | -72.20370 | 42058 ft | 436 kts | 238° |
| 2026-04-16 23:18 | 32.88234 | -72.26026 | 42050 ft | 436 kts | 238° |
| 2026-04-16 23:19 | 32.84438 | -72.31695 | 42049 ft | 436 kts | 238° |
| 2026-04-16 23:19 | 32.80629 | -72.37376 | 42048 ft | 436 kts | 238° |
| 2026-04-16 23:20 | 32.76862 | -72.42985 | 42058 ft | 435 kts | 238° |
| 2026-04-16 23:20 | 32.73043 | -72.48661 | 42047 ft | 435 kts | 238° |
| 2026-04-16 23:21 | 32.69222 | -72.54333 | 42048 ft | 435 kts | 238° |
| 2026-04-16 23:21 | 32.65420 | -72.59969 | 42048 ft | 435 kts | 238° |
| 2026-04-16 23:22 | 32.61583 | -72.65649 | 42050 ft | 435 kts | 237° |
| 2026-04-16 23:22 | 32.57812 | -72.71223 | 42056 ft | 435 kts | 237° |
| 2026-04-16 23:23 | 32.53991 | -72.76861 | 42058 ft | 436 kts | 238° |
| 2026-04-16 23:23 | 32.50179 | -72.82478 | 42056 ft | 437 kts | 238° |
| 2026-04-16 23:24 | 32.46350 | -72.88111 | 42056 ft | 437 kts | 238° |
| 2026-04-16 23:24 | 32.42482 | -72.93793 | 42056 ft | 438 kts | 238° |
| 2026-04-16 23:25 | 32.38626 | -72.99448 | 42056 ft | 438 kts | 238° |
| 2026-04-16 23:25 | 32.34763 | -73.05106 | 42056 ft | 438 kts | 238° |
| 2026-04-16 23:26 | 32.30913 | -73.10735 | 42056 ft | 439 kts | 238° |
| 2026-04-16 23:26 | 32.27066 | -73.16353 | 42055 ft | 439 kts | 238° |
| 2026-04-16 23:27 | 32.23207 | -73.21976 | 42054 ft | 439 kts | 238° |
| 2026-04-16 23:27 | 32.19336 | -73.27613 | 42055 ft | 440 kts | 238° |
| 2026-04-16 23:28 | 32.15480 | -73.33217 | 42056 ft | 440 kts | 238° |
| 2026-04-16 23:28 | 32.11632 | -73.38803 | 42055 ft | 441 kts | 238° |
| 2026-04-16 23:29 | 32.07777 | -73.44389 | 42055 ft | 441 kts | 238° |
| 2026-04-16 23:29 | 32.03903 | -73.49995 | 42055 ft | 441 kts | 238° |
| 2026-04-16 23:30 | 32.00021 | -73.55605 | 42055 ft | 442 kts | 238° |
| 2026-04-16 23:30 | 31.96141 | -73.61202 | 42055 ft | 442 kts | 238° |
| 2026-04-16 23:31 | 31.92284 | -73.66759 | 42062 ft | 443 kts | 237° |
| 2026-04-16 23:31 | 31.88368 | -73.72392 | 42053 ft | 444 kts | 237° |
| 2026-04-16 23:32 | 31.84476 | -73.77982 | 42053 ft | 444 kts | 237° |
| 2026-04-16 23:32 | 31.80565 | -73.83592 | 42053 ft | 444 kts | 237° |
| 2026-04-16 23:33 | 31.76620 | -73.89240 | 42053 ft | 444 kts | 237° |
| 2026-04-16 23:33 | 31.72689 | -73.94861 | 42051 ft | 444 kts | 237° |
| 2026-04-16 23:34 | 31.68741 | -74.00497 | 42044 ft | 444 kts | 237° |
| 2026-04-16 23:34 | 31.64792 | -74.06126 | 42045 ft | 445 kts | 237° |
| 2026-04-16 23:35 | 31.60821 | -74.11780 | 42044 ft | 445 kts | 237° |
| 2026-04-16 23:35 | 31.56880 | -74.17381 | 42044 ft | 445 kts | 237° |
| 2026-04-16 23:36 | 31.52917 | -74.23004 | 42044 ft | 446 kts | 237° |
| 2026-04-16 23:36 | 31.48946 | -74.28634 | 42043 ft | 446 kts | 237° |
| 2026-04-16 23:37 | 31.44980 | -74.34246 | 42043 ft | 446 kts | 237° |
| 2026-04-16 23:37 | 31.41007 | -74.39859 | 42043 ft | 446 kts | 237° |
| 2026-04-16 23:38 | 31.37024 | -74.45478 | 42043 ft | 446 kts | 237° |
| 2026-04-16 23:38 | 31.33063 | -74.51060 | 42043 ft | 446 kts | 237° |
| 2026-04-16 23:39 | 31.29076 | -74.56668 | 42043 ft | 446 kts | 237° |
| 2026-04-16 23:39 | 31.25075 | -74.62289 | 42043 ft | 446 kts | 237° |
| 2026-04-16 23:40 | 31.21064 | -74.67914 | 42051 ft | 447 kts | 237° |
| 2026-04-16 23:40 | 31.17048 | -74.73541 | 42051 ft | 448 kts | 237° |
| 2026-04-16 23:41 | 31.13033 | -74.79156 | 42051 ft | 449 kts | 237° |
| 2026-04-16 23:41 | 31.08990 | -74.84803 | 42051 ft | 450 kts | 237° |
| 2026-04-16 23:42 | 31.04906 | -74.90498 | 42051 ft | 450 kts | 237° |
| 2026-04-16 23:42 | 31.00828 | -74.96177 | 42069 ft | 450 kts | 237° |
| 2026-04-16 23:43 | 30.96723 | -75.01885 | 42069 ft | 451 kts | 237° |
| 2026-04-16 23:43 | 30.92618 | -75.07585 | 42069 ft | 452 kts | 237° |
| 2026-04-16 23:44 | 30.88561 | -75.13210 | 42059 ft | 452 kts | 237° |
| 2026-04-16 23:44 | 30.84472 | -75.18870 | 42058 ft | 452 kts | 237° |
| 2026-04-16 23:45 | 30.80386 | -75.24519 | 42058 ft | 451 kts | 237° |
| 2026-04-16 23:45 | 30.76335 | -75.30109 | 42058 ft | 451 kts | 237° |
| 2026-04-16 23:46 | 30.72226 | -75.35773 | 42058 ft | 450 kts | 237° |
| 2026-04-16 23:46 | 30.68109 | -75.41440 | 42058 ft | 450 kts | 237° |
| 2026-04-16 23:47 | 30.63995 | -75.47096 | 42058 ft | 450 kts | 237° |
| 2026-04-16 23:47 | 30.59907 | -75.52707 | 42058 ft | 450 kts | 237° |
| 2026-04-16 23:48 | 30.55785 | -75.58355 | 42058 ft | 450 kts | 237° |
| 2026-04-16 23:48 | 30.51728 | -75.63908 | 42058 ft | 449 kts | 237° |
| 2026-04-16 23:49 | 30.47671 | -75.69452 | 42066 ft | 450 kts | 237° |
| 2026-04-16 23:49 | 30.43601 | -75.75007 | 42066 ft | 450 kts | 237° |
| 2026-04-16 23:50 | 30.39532 | -75.80551 | 42067 ft | 451 kts | 236° |
| 2026-04-16 23:50 | 30.35438 | -75.86122 | 42067 ft | 451 kts | 236° |
| 2026-04-16 23:51 | 30.31324 | -75.91714 | 42067 ft | 451 kts | 236° |
| 2026-04-16 23:51 | 30.27202 | -75.97307 | 42066 ft | 452 kts | 236° |
| 2026-04-16 23:52 | 30.23046 | -76.02940 | 42064 ft | 452 kts | 236° |
| 2026-04-16 23:52 | 30.18893 | -76.08558 | 42066 ft | 453 kts | 236° |
| 2026-04-16 23:53 | 30.14727 | -76.14186 | 42067 ft | 453 kts | 236° |
| 2026-04-16 23:53 | 30.10633 | -76.19710 | 42111 ft | 453 kts | 236° |
| 2026-04-16 23:54 | 30.06564 | -76.25192 | 42113 ft | 453 kts | 236° |
| 2026-04-16 23:54 | 30.02475 | -76.30695 | 42113 ft | 454 kts | 236° |
| 2026-04-16 23:55 | 29.98363 | -76.36221 | 42113 ft | 454 kts | 236° |
| 2026-04-16 23:55 | 29.94271 | -76.41711 | 42112 ft | 454 kts | 236° |
| 2026-04-16 23:56 | 29.90175 | -76.47200 | 42112 ft | 454 kts | 236° |
| 2026-04-16 23:56 | 29.86066 | -76.52698 | 42101 ft | 454 kts | 236° |
| 2026-04-16 23:57 | 29.81955 | -76.58191 | 42102 ft | 453 kts | 236° |
| 2026-04-16 23:57 | 29.77874 | -76.63636 | 42101 ft | 452 kts | 236° |
| 2026-04-16 23:58 | 29.73753 | -76.69126 | 42107 ft | 452 kts | 236° |
| 2026-04-16 23:58 | 29.69654 | -76.74583 | 42109 ft | 453 kts | 236° |
| 2026-04-16 23:59 | 29.65550 | -76.80038 | 42109 ft | 453 kts | 236° |
| 2026-04-16 23:59 | 29.62060 | -76.85864 | 42110 ft | 437 kts | 252° |
| 2026-04-17 00:00 | 29.60400 | -76.92403 | 42112 ft | 425 kts | 265° |
| 2026-04-17 00:00 | 29.59401 | -76.99076 | 42110 ft | 423 kts | 266° |
| 2026-04-17 00:01 | 29.58533 | -77.05749 | 42108 ft | 422 kts | 267° |
| 2026-04-17 00:01 | 29.57718 | -77.12389 | 42107 ft | 422 kts | 268° |
| 2026-04-17 00:02 | 29.56920 | -77.19038 | 42107 ft | 421 kts | 268° |
| 2026-04-17 00:02 | 29.56126 | -77.25686 | 42107 ft | 421 kts | 268° |
| 2026-04-17 00:03 | 29.55325 | -77.32391 | 42105 ft | 420 kts | 268° |
| 2026-04-17 00:03 | 29.54530 | -77.39020 | 42105 ft | 420 kts | 268° |
| 2026-04-17 00:04 | 29.53731 | -77.45663 | 42104 ft | 419 kts | 268° |
| 2026-04-17 00:04 | 29.52930 | -77.52293 | 42104 ft | 418 kts | 268° |
| 2026-04-17 00:05 | 29.52128 | -77.58905 | 42103 ft | 418 kts | 268° |
| 2026-04-17 00:05 | 29.51326 | -77.65483 | 42104 ft | 417 kts | 267° |
| 2026-04-17 00:06 | 29.50519 | -77.72079 | 42112 ft | 417 kts | 267° |
| 2026-04-17 00:06 | 29.49711 | -77.78674 | 42113 ft | 417 kts | 267° |
| 2026-04-17 00:07 | 29.48899 | -77.85247 | 42111 ft | 417 kts | 267° |
| 2026-04-17 00:07 | 29.48079 | -77.91858 | 42111 ft | 417 kts | 267° |
| 2026-04-17 00:08 | 29.47251 | -77.98510 | 42110 ft | 417 kts | 267° |
| 2026-04-17 00:08 | 29.46424 | -78.05127 | 42109 ft | 417 kts | 267° |
| 2026-04-17 00:09 | 29.45592 | -78.11763 | 42109 ft | 417 kts | 267° |
| 2026-04-17 00:09 | 29.44759 | -78.18375 | 42108 ft | 417 kts | 267° |
| 2026-04-17 00:10 | 29.43929 | -78.24939 | 42107 ft | 417 kts | 267° |
| 2026-04-17 00:10 | 29.43084 | -78.31583 | 42106 ft | 416 kts | 267° |
| 2026-04-17 00:11 | 29.42242 | -78.38189 | 42106 ft | 415 kts | 267° |
| 2026-04-17 00:11 | 29.41401 | -78.44755 | 42105 ft | 415 kts | 267° |
| 2026-04-17 00:12 | 29.40555 | -78.51343 | 42104 ft | 414 kts | 267° |
| 2026-04-17 00:12 | 29.39227 | -78.57816 | 42048 ft | 419 kts | 258° |
| 2026-04-17 00:13 | 29.37415 | -78.64121 | 41948 ft | 410 kts | 258° |
| 2026-04-17 00:13 | 29.36498 | -78.67234 | 41829 ft | 408 kts | 257° |
| 2026-04-17 00:13 | 29.35576 | -78.70318 | 41351 ft | 415 kts | 257° |
| 2026-04-17 00:13 | 29.34627 | -78.73473 | 40880 ft | 421 kts | 256° |
| 2026-04-17 00:14 | 29.33663 | -78.76663 | 40402 ft | 426 kts | 256° |
| 2026-04-17 00:14 | 29.32684 | -78.79890 | 39916 ft | 430 kts | 256° |
| 2026-04-17 00:14 | 29.31694 | -78.83148 | 39422 ft | 435 kts | 256° |
| 2026-04-17 00:14 | 29.30692 | -78.86440 | 38925 ft | 438 kts | 256° |
| 2026-04-17 00:15 | 29.29684 | -78.89745 | 38427 ft | 442 kts | 256° |
| 2026-04-17 00:15 | 29.28676 | -78.93080 | 37936 ft | 441 kts | 256° |
| 2026-04-17 00:15 | 29.27676 | -78.96389 | 37452 ft | 439 kts | 256° |
| 2026-04-17 00:15 | 29.26677 | -78.99697 | 36970 ft | 440 kts | 256° |
| 2026-04-17 00:16 | 29.25658 | -79.03066 | 36474 ft | 442 kts | 255° |
| 2026-04-17 00:16 | 29.24658 | -79.06370 | 35984 ft | 443 kts | 255° |
| 2026-04-17 00:16 | 29.23656 | -79.09750 | 35483 ft | 443 kts | 257° |
| 2026-04-17 00:16 | 29.22774 | -79.13116 | 35000 ft | 443 kts | 257° |
| 2026-04-17 00:17 | 29.21822 | -79.16439 | 34512 ft | 445 kts | 254° |
| 2026-04-17 00:17 | 29.20769 | -79.19782 | 34019 ft | 445 kts | 254° |
| 2026-04-17 00:17 | 29.19712 | -79.23127 | 33523 ft | 444 kts | 254° |
| 2026-04-17 00:17 | 29.18664 | -79.26434 | 33034 ft | 444 kts | 254° |
| 2026-04-17 00:18 | 29.17611 | -79.29753 | 32543 ft | 442 kts | 254° |
| 2026-04-17 00:18 | 29.16590 | -79.33070 | 32052 ft | 440 kts | 255° |
| 2026-04-17 00:18 | 29.15603 | -79.36337 | 31569 ft | 438 kts | 255° |
| 2026-04-17 00:18 | 29.14612 | -79.39616 | 31083 ft | 436 kts | 255° |
| 2026-04-17 00:19 | 29.13618 | -79.42907 | 30595 ft | 434 kts | 255° |
| 2026-04-17 00:19 | 29.12633 | -79.46162 | 30115 ft | 432 kts | 254° |
| 2026-04-17 00:19 | 29.11658 | -79.49386 | 29640 ft | 430 kts | 254° |
| 2026-04-17 00:19 | 29.10681 | -79.52612 | 29167 ft | 427 kts | 254° |
| 2026-04-17 00:20 | 29.09714 | -79.55802 | 28700 ft | 424 kts | 254° |
| 2026-04-17 00:20 | 29.08741 | -79.59016 | 28222 ft | 422 kts | 253° |
| 2026-04-17 00:20 | 29.07791 | -79.62153 | 27754 ft | 419 kts | 253° |
| 2026-04-17 00:20 | 29.06846 | -79.65272 | 27290 ft | 417 kts | 253° |
| 2026-04-17 00:21 | 29.05893 | -79.68411 | 26832 ft | 414 kts | 252° |
| 2026-04-17 00:21 | 29.04965 | -79.71464 | 26385 ft | 411 kts | 252° |
| 2026-04-17 00:21 | 29.04024 | -79.74558 | 25931 ft | 408 kts | 252° |
| 2026-04-17 00:21 | 29.03096 | -79.77605 | 25485 ft | 405 kts | 252° |
| 2026-04-17 00:22 | 29.01264 | -79.83617 | 24599 ft | 399 kts | 251° |
| 2026-04-17 00:22 | 29.00358 | -79.86587 | 24161 ft | 396 kts | 251° |
| 2026-04-17 00:22 | 28.99450 | -79.89558 | 23722 ft | 393 kts | 251° |
| 2026-04-17 00:23 | 28.98560 | -79.92464 | 23293 ft | 391 kts | 251° |
| 2026-04-17 00:23 | 28.97670 | -79.95373 | 22864 ft | 388 kts | 251° |
| 2026-04-17 00:23 | 28.96789 | -79.98247 | 22441 ft | 385 kts | 251° |
| 2026-04-17 00:23 | 28.95900 | -80.01146 | 22014 ft | 382 kts | 251° |
| 2026-04-17 00:24 | 28.95031 | -80.03977 | 21598 ft | 379 kts | 251° |
| 2026-04-17 00:24 | 28.94165 | -80.06795 | 21184 ft | 377 kts | 251° |
| 2026-04-17 00:24 | 28.93303 | -80.09602 | 20773 ft | 374 kts | 251° |
| 2026-04-17 00:24 | 28.92444 | -80.12394 | 20362 ft | 371 kts | 251° |
| 2026-04-17 00:25 | 28.91598 | -80.15140 | 19953 ft | 368 kts | 251° |
| 2026-04-17 00:25 | 28.90746 | -80.17905 | 19545 ft | 365 kts | 251° |
| 2026-04-17 00:25 | 28.89901 | -80.20648 | 19141 ft | 363 kts | 251° |
| 2026-04-17 00:25 | 28.89070 | -80.23339 | 18746 ft | 360 kts | 251° |
| 2026-04-17 00:26 | 28.88239 | -80.26029 | 18351 ft | 357 kts | 251° |
| 2026-04-17 00:26 | 28.87413 | -80.28693 | 17959 ft | 354 kts | 251° |
| 2026-04-17 00:26 | 28.86601 | -80.31314 | 17573 ft | 351 kts | 252° |
| 2026-04-17 00:26 | 28.85785 | -80.33950 | 17186 ft | 348 kts | 252° |
| 2026-04-17 00:27 | 28.84987 | -80.36526 | 16809 ft | 346 kts | 252° |
| 2026-04-17 00:27 | 28.84192 | -80.39095 | 16433 ft | 343 kts | 252° |
| 2026-04-17 00:27 | 28.83718 | -80.41706 | 16026 ft | 338 kts | 272° |
| 2026-04-17 00:27 | 28.84205 | -80.44308 | 15666 ft | 333 kts | 287° |
| 2026-04-17 00:28 | 28.84893 | -80.46848 | 15280 ft | 330 kts | 288° |
| 2026-04-17 00:28 | 28.85584 | -80.49304 | 14904 ft | 327 kts | 288° |
| 2026-04-17 00:28 | 28.86291 | -80.51759 | 14528 ft | 324 kts | 289° |
| 2026-04-17 00:28 | 28.87019 | -80.54244 | 14147 ft | 321 kts | 289° |
| 2026-04-17 00:29 | 28.87740 | -80.56677 | 13776 ft | 318 kts | 289° |
| 2026-04-17 00:29 | 28.88454 | -80.59075 | 13410 ft | 314 kts | 289° |
| 2026-04-17 00:29 | 28.89174 | -80.61483 | 13043 ft | 311 kts | 289° |
| 2026-04-17 00:29 | 28.89877 | -80.63836 | 12685 ft | 307 kts | 289° |
| 2026-04-17 00:30 | 28.90569 | -80.66142 | 12339 ft | 303 kts | 289° |
| 2026-04-17 00:30 | 28.91256 | -80.68420 | 11999 ft | 299 kts | 289° |
| 2026-04-17 00:30 | 28.91942 | -80.70696 | 11659 ft | 295 kts | 289° |
| 2026-04-17 00:30 | 28.92632 | -80.72983 | 11319 ft | 291 kts | 289° |
| 2026-04-17 00:31 | 28.93290 | -80.75162 | 10995 ft | 288 kts | 289° |
| 2026-04-17 00:31 | 28.93951 | -80.77361 | 10671 ft | 286 kts | 290° |
| 2026-04-17 00:31 | 28.94608 | -80.79537 | 10349 ft | 283 kts | 290° |
| 2026-04-17 00:31 | 28.95251 | -80.81674 | 10032 ft | 279 kts | 290° |
| 2026-04-17 00:32 | 28.95895 | -80.83813 | 9715 ft | 276 kts | 290° |
| 2026-04-17 00:32 | 28.96530 | -80.85922 | 9404 ft | 272 kts | 290° |
| 2026-04-17 00:32 | 28.97177 | -80.88074 | 9087 ft | 268 kts | 290° |
| 2026-04-17 00:32 | 28.97795 | -80.90131 | 8785 ft | 264 kts | 290° |
| 2026-04-17 00:33 | 28.98403 | -80.92154 | 8488 ft | 259 kts | 290° |
| 2026-04-17 00:33 | 28.99000 | -80.94145 | 8197 ft | 255 kts | 290° |
| 2026-04-17 00:33 | 28.99585 | -80.96094 | 7914 ft | 250 kts | 290° |
| 2026-04-17 00:33 | 29.00153 | -80.97999 | 7638 ft | 246 kts | 288° |
| 2026-04-17 00:34 | 29.00146 | -80.99966 | 7376 ft | 242 kts | 258° |
| 2026-04-17 00:34 | 28.99762 | -81.01887 | 7126 ft | 236 kts | 259° |
| 2026-04-17 00:34 | 28.99425 | -81.03792 | 6872 ft | 231 kts | 261° |
| 2026-04-17 00:34 | 28.99158 | -81.05660 | 6627 ft | 231 kts | 263° |
| 2026-04-17 00:35 | 28.98966 | -81.07510 | 6386 ft | 229 kts | 266° |
| 2026-04-17 00:35 | 28.98849 | -81.09390 | 6140 ft | 227 kts | 269° |
| 2026-04-17 00:35 | 28.98813 | -81.11266 | 5894 ft | 225 kts | 271° |
| 2026-04-17 00:35 | 28.98856 | -81.13058 | 5658 ft | 223 kts | 274° |
| 2026-04-17 00:36 | 28.98977 | -81.14862 | 5419 ft | 221 kts | 277° |
| 2026-04-17 00:36 | 28.99176 | -81.16658 | 5181 ft | 219 kts | 280° |
| 2026-04-17 00:36 | 28.99445 | -81.18399 | 4948 ft | 218 kts | 282° |
| 2026-04-17 00:36 | 28.99788 | -81.20119 | 4714 ft | 216 kts | 285° |
| 2026-04-17 00:37 | 29.00200 | -81.21808 | 4482 ft | 215 kts | 288° |
| 2026-04-17 00:37 | 29.00682 | -81.23470 | 4247 ft | 214 kts | 291° |
| 2026-04-17 00:37 | 29.01236 | -81.25105 | 4012 ft | 213 kts | 294° |
| 2026-04-17 00:37 | 29.01865 | -81.26724 | 3774 ft | 212 kts | 296° |
| 2026-04-17 00:38 | 29.02552 | -81.28283 | 3539 ft | 209 kts | 299° |
| 2026-04-17 00:38 | 29.03286 | -81.29751 | 3300 ft | 202 kts | 300° |
| 2026-04-17 00:38 | 29.04057 | -81.31156 | 3072 ft | 195 kts | 302° |
| 2026-04-17 00:38 | 29.04825 | -81.32430 | 2863 ft | 189 kts | 304° |
| 2026-04-17 00:39 | 29.05638 | -81.33662 | 2656 ft | 183 kts | 307° |
| 2026-04-17 00:39 | 29.06691 | -81.34508 | 2384 ft | 181 kts | 349° |
| 2026-04-17 00:39 | 29.07928 | -81.34257 | 2238 ft | 180 kts | 36° |
| 2026-04-17 00:39 | 29.08651 | -81.33049 | 2114 ft | 181 kts | 82° |
| 2026-04-17 00:40 | 29.08738 | -81.31523 | 1951 ft | 190 kts | 86° |
| 2026-04-17 00:40 | 29.08992 | -81.29902 | 1726 ft | 203 kts | 78° |
| 2026-04-17 00:40 | 29.09528 | -81.28303 | 1613 ft | 206 kts | 79° |
| 2026-04-17 00:40 | 29.09841 | -81.26606 | 1613 ft | 205 kts | 79° |
| 2026-04-17 00:41 | 29.10261 | -81.24979 | 1607 ft | 203 kts | 67° |
| 2026-04-17 00:41 | 29.10850 | -81.23530 | 1595 ft | 184 kts | 67° |
| 2026-04-17 00:41 | 29.11383 | -81.22229 | 1587 ft | 162 kts | 67° |
| 2026-04-17 00:41 | 29.11850 | -81.21088 | 1616 ft | 148 kts | 64° |
| 2026-04-17 00:42 | 29.12282 | -81.20023 | 1614 ft | 143 kts | 64° |
| 2026-04-17 00:42 | 29.12711 | -81.18967 | 1610 ft | 142 kts | 64° |
| 2026-04-17 00:42 | 29.13135 | -81.17924 | 1608 ft | 141 kts | 65° |
| 2026-04-17 00:42 | 29.13550 | -81.16903 | 1637 ft | 136 kts | 64° |
| 2026-04-17 00:43 | 29.13955 | -81.15905 | 1595 ft | 133 kts | 64° |
| 2026-04-17 00:43 | 29.14354 | -81.14925 | 1425 ft | 130 kts | 65° |
| 2026-04-17 00:43 | 29.14738 | -81.13981 | 1255 ft | 128 kts | 65° |
| 2026-04-17 00:43 | 29.15114 | -81.13058 | 1093 ft | 125 kts | 65° |
| 2026-04-17 00:44 | 29.15479 | -81.12158 | 928 ft | 122 kts | 66° |
| 2026-04-17 00:44 | 29.15833 | -81.11285 | 762 ft | 119 kts | 66° |
| 2026-04-17 00:44 | 29.16192 | -81.10401 | 599 ft | 116 kts | 66° |
| 2026-04-17 00:44 | 29.16540 | -81.09542 | 439 ft | 114 kts | 66° |
| 2026-04-17 00:45 | 29.16882 | -81.08702 | 288 ft | 114 kts | 67° |
| 2026-04-17 00:45 | 29.17220 | -81.07864 | 127 ft | 116 kts | 66° |
| 2026-04-17 00:45 | 29.17533 | -81.07099 | 32 ft | 95 kts | 67° |
| 2026-04-17 00:45 | 29.17732 | -81.06586 | 30 ft | 28 kts | 67° |
| 2026-04-17 00:46 | 29.17819 | -81.06451 | 30 ft | 21 kts | 16° |
| 2026-04-17 00:46 | 29.17942 | -81.06451 | 30 ft | 14 kts | 52° |
| 2026-04-17 00:46 | 29.17994 | -81.06327 | 30 ft | 17 kts | 64° |
| 2026-04-17 00:46 | 29.18047 | -81.06197 | 30 ft | 18 kts | 66° |
| 2026-04-17 00:47 | 29.18104 | -81.06062 | 30 ft | 18 kts | 65° |
| 2026-04-17 00:47 | 29.18158 | -81.05921 | 31 ft | 18 kts | 65° |
| 2026-04-17 00:47 | 29.18212 | -81.05790 | 33 ft | 18 kts | 65° |
| 2026-04-17 00:47 | 29.18266 | -81.05656 | 33 ft | 18 kts | 65° |
| 2026-04-17 00:48 | 29.18320 | -81.05518 | 33 ft | 19 kts | 64° |
| 2026-04-17 00:48 | 29.18425 | -81.05459 | 33 ft | 18 kts | 343° |
| 2026-04-17 00:48 | 29.18546 | -81.05518 | 33 ft | 19 kts | 337° |
| 2026-04-17 00:48 | 29.18655 | -81.05578 | 33 ft | 11 kts | 323° |
| 2026-04-17 00:49 | 29.18654 | -81.05624 | 33 ft | 0 kts | 244° |
| 2026-04-17 00:49 | 29.18646 | -81.05643 | 33 ft | 4 kts | 246° |
| 2026-04-17 00:49 | 29.18644 | -81.05650 | 33 ft | 0 kts | 246° |